Time;durP1;ratioP1;P1;durP2;ratioP2;P2;SDS_P1;SDS_P2;PMS_P1;PMS_P2;Temp;Humidity;BMP_temperature;BMP_pressure;BME280_temperature;BME280_humidity;BME280_pressure;Samples;Min_cycle;Max_cycle;Signal;HPM_P1;HPM_P2
2022/03/15 00:01:29;;;;;;;;;;;6.20;99.90;;;;;;5072741;28;19932;-76
2022/03/15 00:03:56;;;;;;;;;;;6.20;99.90;;;;;;5072517;28;20334;-76
2022/03/15 00:06:22;;;;;;;;;;;6.20;99.90;;;;;;5072433;28;19924;-77
2022/03/15 00:08:49;;;;;;;;;;;6.20;99.90;;;;;;5070962;28;19928;-75
2022/03/15 00:11:16;;;;;;;;;;;6.30;99.90;;;;;;5071105;28;19924;-73
2022/03/15 00:13:46;;;;;;;;;;;6.20;99.90;;;;;;5072119;28;20479;-76
2022/03/15 00:16:13;;;;;;;;;;;6.30;99.90;;;;;;5071794;28;19925;-77
2022/03/15 00:18:40;;;;;;;;;;;6.30;99.90;;;;;;5071397;28;19933;-76
2022/03/15 00:21:07;;;;;;;;;;;6.30;99.90;;;;;;5071844;28;19925;-75
2022/03/15 00:23:35;;;;;;;;;;;6.30;99.90;;;;;;5072227;28;19924;-76
2022/03/15 00:26:02;;;;;;;;;;;6.30;99.90;;;;;;5071939;28;20445;-76
2022/03/15 00:28:29;;;;;;;;;;;6.30;99.90;;;;;;5072173;28;19960;-76
2022/03/15 00:30:57;;;;;;;;;;;6.30;99.90;;;;;;5071571;28;19952;-76
2022/03/15 00:33:25;;;;;;;;;;;6.30;99.90;;;;;;5071916;28;19928;-76
2022/03/15 00:35:53;;;;;;;;;;;6.30;99.90;;;;;;5071650;28;19931;-77
2022/03/15 00:38:20;;;;;;;;;;;6.30;99.90;;;;;;5071850;28;20019;-76
2022/03/15 00:40:47;;;;;;;;;;;6.20;99.90;;;;;;5071392;28;19924;-76
2022/03/15 00:43:15;;;;;;;;;;;6.20;99.90;;;;;;5071613;28;20427;-76
2022/03/15 00:45:42;;;;;;;;;;;6.20;99.90;;;;;;5071909;28;19924;-76
2022/03/15 00:48:11;;;;;;;;;;;6.20;99.90;;;;;;5071519;28;19929;-76
2022/03/15 00:50:41;;;;;;;;;;;6.20;99.90;;;;;;5071508;28;19964;-76
2022/03/15 00:53:09;;;;;;;;;;;6.20;99.90;;;;;;5071256;28;19958;-77
2022/03/15 00:55:36;;;;;;;;;;;6.10;99.90;;;;;;5071905;28;20365;-77
2022/03/15 00:58:03;;;;;;;;;;;6.10;99.90;;;;;;5071615;28;19928;-77
2022/03/15 01:00:31;;;;;;;;;;;6.10;99.90;;;;;;5070889;28;19928;-76
2022/03/15 01:02:58;;;;;;;;;;;6.10;99.90;;;;;;5071128;28;19924;-76
2022/03/15 01:05:26;;;;;;;;;;;6.00;99.90;;;;;;5071327;28;19940;-77
2022/03/15 01:07:53;;;;;;;;;;;6.00;99.90;;;;;;5071370;28;19932;-77
2022/03/15 01:10:20;;;;;;;;;;;5.90;99.90;;;;;;5070091;28;20307;-76
2022/03/15 01:12:47;;;;;;;;;;;5.90;99.90;;;;;;5070394;28;19977;-74
2022/03/15 01:15:13;;;;;;;;;;;5.90;99.90;;;;;;5070786;28;19974;-77
2022/03/15 01:17:41;;;;;;;;;;;5.90;99.90;;;;;;5070897;28;19928;-76
2022/03/15 01:20:09;;;;;;;;;;;5.80;99.90;;;;;;5070738;28;20013;-77
2022/03/15 01:22:39;;;;;;;;;;;5.80;99.90;;;;;;5071329;28;19925;-77
2022/03/15 01:25:07;;;;;;;;;;;5.80;99.90;;;;;;5071354;28;19924;-77
2022/03/15 01:27:36;;;;;;;;;;;5.80;99.90;;;;;;5070923;28;19924;-77
2022/03/15 01:30:06;;;;;;;;;;;5.70;99.90;;;;;;5070529;28;19924;-77
2022/03/15 01:32:33;;;;;;;;;;;5.70;99.90;;;;;;5071114;28;19925;-77
2022/03/15 01:34:59;;;;;;;;;;;5.70;99.90;;;;;;5071038;28;19947;-77
2022/03/15 01:37:26;;;;;;;;;;;5.70;99.90;;;;;;5070880;28;19932;-78
2022/03/15 01:39:58;;;;;;;;;;;5.70;99.90;;;;;;5070390;28;19924;-78
2022/03/15 01:42:24;;;;;;;;;;;5.60;99.90;;;;;;5070930;28;19929;-77
2022/03/15 01:44:51;;;;;;;;;;;5.40;99.90;;;;;;5070758;28;20394;-77
2022/03/15 01:47:18;;;;;;;;;;;5.40;99.90;;;;;;5070697;28;19924;-77
2022/03/15 01:49:45;;;;;;;;;;;5.30;99.90;;;;;;5070142;28;19925;-77
2022/03/15 01:52:13;;;;;;;;;;;5.30;99.90;;;;;;5070904;28;19931;-77
2022/03/15 01:54:41;;;;;;;;;;;5.30;99.90;;;;;;5070535;28;20011;-77
2022/03/15 01:57:09;;;;;;;;;;;5.20;99.90;;;;;;5070599;28;19928;-77
2022/03/15 01:59:37;;;;;;;;;;;5.20;99.90;;;;;;5070016;28;20103;-77
2022/03/15 02:02:04;;;;;;;;;;;5.10;99.90;;;;;;5070092;28;19979;-77
2022/03/15 02:04:32;;;;;;;;;;;5.10;99.90;;;;;;5071878;28;19924;-77
2022/03/15 02:07:03;;;;;;;;;;;5.10;99.90;;;;;;5075038;28;20304;-76
2022/03/15 02:09:30;;;;;;;;;;;5.10;99.90;;;;;;5074364;28;20011;-77
2022/03/15 02:11:57;;;;;;;;;;;5.10;99.90;;;;;;5074313;28;19929;-77
2022/03/15 02:14:26;;;;;;;;;;;5.20;99.90;;;;;;5074935;28;19925;-77
2022/03/15 02:16:53;;;;;;;;;;;5.20;99.90;;;;;;5074670;28;19956;-78
2022/03/15 02:19:20;;;;;;;;;;;5.20;99.90;;;;;;5073517;28;19982;-77
2022/03/15 02:21:48;;;;;;;;;;;5.20;99.90;;;;;;5074280;28;19924;-77
2022/03/15 02:24:15;;;;;;;;;;;5.20;99.90;;;;;;5074122;28;19924;-77
2022/03/15 02:26:42;;;;;;;;;;;5.20;99.90;;;;;;5074309;28;19931;-78
2022/03/15 02:29:09;;;;;;;;;;;5.20;99.90;;;;;;5074223;28;19924;-77
2022/03/15 02:31:36;;;;;;;;;;;5.20;99.90;;;;;;5074397;28;20011;-77
2022/03/15 02:34:02;;;;;;;;;;;5.20;99.90;;;;;;5074390;28;19928;-77
2022/03/15 02:36:29;;;;;;;;;;;5.10;99.90;;;;;;5074055;28;19924;-77
2022/03/15 02:38:57;;;;;;;;;;;5.10;99.90;;;;;;5073598;28;19925;-76
2022/03/15 02:41:24;;;;;;;;;;;5.10;99.90;;;;;;5074229;28;19924;-77
2022/03/15 02:43:51;;;;;;;;;;;5.10;99.90;;;;;;5073867;28;20289;-77
2022/03/15 02:46:18;;;;;;;;;;;5.10;99.90;;;;;;5073792;28;19928;-77
2022/03/15 02:48:45;;;;;;;;;;;5.10;99.90;;;;;;5073570;28;20346;-77
2022/03/15 02:51:12;;;;;;;;;;;5.10;99.90;;;;;;5073656;28;19933;-77
2022/03/15 02:53:39;;;;;;;;;;;5.10;99.90;;;;;;5073983;28;19971;-77
2022/03/15 02:56:11;;;;;;;;;;;5.10;99.90;;;;;;5073921;28;19924;-77
2022/03/15 02:58:38;;;;;;;;;;;5.10;99.90;;;;;;5073579;28;19925;-74
2022/03/15 03:01:05;;;;;;;;;;;5.00;99.90;;;;;;5073660;28;19925;-77
2022/03/15 03:03:31;;;;;;;;;;;5.00;99.90;;;;;;5073444;28;19929;-77
2022/03/15 03:05:58;;;;;;;;;;;5.00;99.90;;;;;;5073807;28;20298;-77
2022/03/15 03:08:27;;;;;;;;;;;4.90;99.90;;;;;;5073807;28;19928;-77
2022/03/15 03:10:58;;;;;;;;;;;5.00;99.90;;;;;;5072923;28;19924;-77
2022/03/15 03:13:26;;;;;;;;;;;5.00;99.90;;;;;;5072795;28;20376;-77
2022/03/15 03:15:55;;;;;;;;;;;5.00;99.90;;;;;;5073091;28;19924;-77
2022/03/15 03:18:22;;;;;;;;;;;5.00;99.90;;;;;;5072704;28;19960;-77
2022/03/15 03:20:49;;;;;;;;;;;5.00;99.90;;;;;;5072654;28;19930;-77
2022/03/15 03:23:16;;;;;;;;;;;5.00;99.90;;;;;;5073136;28;19929;-77
2022/03/15 03:25:43;;;;;;;;;;;5.00;99.90;;;;;;5073139;28;20448;-77
2022/03/15 03:28:12;;;;;;;;;;;5.00;99.90;;;;;;5073142;28;19925;-77
2022/03/15 03:30:46;;;;;;;;;;;4.90;99.90;;;;;;5072815;28;19931;-77
2022/03/15 03:33:13;;;;;;;;;;;4.90;99.90;;;;;;5073419;28;19924;-76
2022/03/15 03:35:40;;;;;;;;;;;4.90;99.90;;;;;;5073313;28;20401;-77
2022/03/15 03:38:07;;;;;;;;;;;4.90;99.90;;;;;;5065815;28;20442;-76
2022/03/15 03:40:34;;;;;;;;;;;4.90;99.90;;;;;;5064001;28;20354;-77
2022/03/15 03:43:00;;;;;;;;;;;4.90;99.90;;;;;;5072843;28;19929;-77
2022/03/15 03:45:28;;;;;;;;;;;4.90;99.90;;;;;;5072835;28;20410;-77
2022/03/15 03:47:56;;;;;;;;;;;4.90;99.90;;;;;;5073179;28;19925;-77
2022/03/15 03:50:23;;;;;;;;;;;4.90;99.90;;;;;;5072653;28;19928;-77
2022/03/15 03:52:50;;;;;;;;;;;4.90;99.90;;;;;;5072599;28;20391;-77
2022/03/15 03:55:17;;;;;;;;;;;4.90;99.90;;;;;;5073079;28;19938;-77
2022/03/15 03:57:43;;;;;;;;;;;4.90;99.90;;;;;;5072579;28;19930;-77
2022/03/15 04:00:10;;;;;;;;;;;4.90;99.90;;;;;;5072238;28;19928;-76
2022/03/15 04:02:40;;;;;;;;;;;4.90;99.90;;;;;;5073954;28;19924;-77
2022/03/15 04:05:09;;;;;;;;;;;4.90;99.90;;;;;;5072686;28;19946;-77
2022/03/15 04:07:37;;;;;;;;;;;4.80;99.90;;;;;;5072594;28;19928;-77
2022/03/15 04:10:06;;;;;;;;;;;4.90;99.90;;;;;;5072008;28;19924;-77
2022/03/15 04:12:34;;;;;;;;;;;4.90;99.90;;;;;;5071120;28;19960;-77
2022/03/15 04:15:01;;;;;;;;;;;4.90;99.90;;;;;;5072054;28;19924;-77
2022/03/15 04:17:27;;;;;;;;;;;4.90;99.90;;;;;;5071637;28;19994;-77
2022/03/15 04:19:54;;;;;;;;;;;4.90;99.90;;;;;;5071704;28;19989;-77
2022/03/15 04:22:22;;;;;;;;;;;4.90;99.90;;;;;;5071872;28;19970;-76
2022/03/15 04:24:49;;;;;;;;;;;4.90;99.90;;;;;;5072064;28;19924;-78
2022/03/15 04:27:16;;;;;;;;;;;4.90;99.90;;;;;;5071432;28;19963;-77
2022/03/15 04:29:43;;;;;;;;;;;4.90;99.90;;;;;;5071289;28;20022;-77
2022/03/15 04:32:10;;;;;;;;;;;4.90;99.90;;;;;;5069174;28;20054;-77
2022/03/15 04:34:36;;;;;;;;;;;5.00;99.90;;;;;;5057765;28;19924;-76
2022/03/15 04:37:05;;;;;;;;;;;5.00;99.90;;;;;;5051850;28;19925;-77
2022/03/15 04:39:33;;;;;;;;;;;5.00;99.90;;;;;;5051495;28;20335;-76
2022/03/15 04:42:00;;;;;;;;;;;5.00;99.90;;;;;;5051648;28;19978;-77
2022/03/15 04:44:26;;;;;;;;;;;5.10;99.90;;;;;;5052096;28;19925;-77
2022/03/15 04:46:53;;;;;;;;;;;5.20;99.90;;;;;;5051783;28;19929;-77
2022/03/15 04:49:20;;;;;;;;;;;5.20;99.90;;;;;;5051249;28;19960;-77
2022/03/15 04:51:48;;;;;;;;;;;5.20;99.90;;;;;;5051715;28;19925;-77
2022/03/15 04:54:15;;;;;;;;;;;5.30;99.90;;;;;;5051504;28;19951;-77
2022/03/15 04:56:44;;;;;;;;;;;5.40;99.90;;;;;;5051822;28;19929;-77
2022/03/15 04:59:10;;;;;;;;;;;5.40;99.90;;;;;;5051297;28;19978;-77
2022/03/15 05:01:37;;;;;;;;;;;5.50;99.90;;;;;;5051338;28;19925;-77
2022/03/15 05:04:04;;;;;;;;;;;5.50;99.90;;;;;;5051675;28;20363;-77
2022/03/15 05:06:31;;;;;;;;;;;5.50;99.90;;;;;;5051410;28;19926;-77
2022/03/15 05:08:57;;;;;;;;;;;5.60;99.90;;;;;;5051220;28;19933;-77
2022/03/15 05:11:25;;;;;;;;;;;5.70;99.90;;;;;;5051117;28;19929;-78
2022/03/15 05:13:56;;;;;;;;;;;5.70;99.90;;;;;;5051511;28;19928;-77
2022/03/15 05:16:22;;;;;;;;;;;5.80;99.90;;;;;;5051298;28;19929;-78
2022/03/15 05:18:53;;;;;;;;;;;5.80;99.90;;;;;;5051176;28;20396;-76
2022/03/15 05:21:20;;;;;;;;;;;5.80;99.90;;;;;;5051012;28;19924;-78
2022/03/15 05:23:47;;;;;;;;;;;5.80;99.90;;;;;;5051220;28;19929;-77
2022/03/15 05:26:15;;;;;;;;;;;5.90;99.90;;;;;;5051109;28;19984;-77
2022/03/15 05:28:43;;;;;;;;;;;5.90;99.90;;;;;;5050843;28;19971;-77
2022/03/15 05:31:13;;;;;;;;;;;5.90;99.90;;;;;;5051129;28;19960;-77
2022/03/15 05:33:40;;;;;;;;;;;6.00;99.90;;;;;;5051338;28;19983;-77
2022/03/15 05:36:06;;;;;;;;;;;6.10;99.90;;;;;;5051013;28;19932;-77
2022/03/15 05:38:33;;;;;;;;;;;6.10;99.90;;;;;;5050601;28;19968;-77
2022/03/15 05:41:00;;;;;;;;;;;6.20;99.90;;;;;;5050523;28;19968;-78
2022/03/15 05:43:27;;;;;;;;;;;6.20;99.90;;;;;;5051000;28;19925;-77
2022/03/15 05:45:55;;;;;;;;;;;6.20;99.90;;;;;;5051055;28;19925;-76
2022/03/15 05:48:23;;;;;;;;;;;6.30;99.90;;;;;;5052374;28;19925;-78
2022/03/15 05:50:50;;;;;;;;;;;6.30;99.90;;;;;;5051409;28;19929;-76
2022/03/15 05:53:17;;;;;;;;;;;6.40;99.90;;;;;;5052044;28;19929;-78
2022/03/15 05:55:44;;;;;;;;;;;6.40;99.90;;;;;;5051244;28;19928;-77
2022/03/15 05:58:14;;;;;;;;;;;6.40;99.90;;;;;;5050762;28;20016;-77
2022/03/15 06:00:42;;;;;;;;;;;6.40;99.90;;;;;;5050617;28;19932;-78
2022/03/15 06:03:10;;;;;;;;;;;6.50;99.90;;;;;;5052696;28;19929;-77
2022/03/15 06:05:38;;;;;;;;;;;6.50;99.90;;;;;;5061468;28;20334;-78
2022/03/15 06:08:06;;;;;;;;;;;6.60;99.90;;;;;;5067308;28;19924;-76
2022/03/15 06:10:32;;;;;;;;;;;6.60;99.90;;;;;;5069411;28;19962;-77
2022/03/15 06:12:59;;;;;;;;;;;6.60;99.90;;;;;;5069961;28;19931;-78
2022/03/15 06:15:26;;;;;;;;;;;6.60;99.90;;;;;;5068225;28;19970;-79
2022/03/15 06:17:56;;;;;;;;;;;6.60;99.90;;;;;;5057882;28;19924;-76
2022/03/15 06:20:23;;;;;;;;;;;6.70;99.90;;;;;;5061688;28;19925;-78
2022/03/15 06:22:53;;;;;;;;;;;6.70;99.90;;;;;;5071128;28;19978;-78
2022/03/15 06:25:22;;;;;;;;;;;6.80;99.90;;;;;;5070180;28;20047;-76
2022/03/15 06:27:49;;;;;;;;;;;6.80;99.90;;;;;;5070085;28;19924;-78
2022/03/15 06:30:16;;;;;;;;;;;6.80;99.90;;;;;;5069515;28;20400;-78
2022/03/15 06:32:44;;;;;;;;;;;6.90;99.90;;;;;;5069673;28;19985;-77
2022/03/15 06:35:12;;;;;;;;;;;6.90;99.90;;;;;;5069625;28;19931;-78
2022/03/15 06:37:40;;;;;;;;;;;6.90;99.90;;;;;;5056196;28;19936;-78
2022/03/15 06:40:09;;;;;;;;;;;7.00;99.90;;;;;;5049475;28;20023;-78
2022/03/15 06:42:37;;;;;;;;;;;7.00;99.90;;;;;;5056812;28;19933;-78
2022/03/15 06:45:04;;;;;;;;;;;7.00;99.90;;;;;;5063412;28;19924;-77
2022/03/15 06:47:30;;;;;;;;;;;7.10;99.90;;;;;;5049604;28;19932;-78
2022/03/15 06:49:57;;;;;;;;;;;7.10;99.90;;;;;;5049504;28;19925;-77
2022/03/15 06:52:24;;;;;;;;;;;7.10;99.90;;;;;;5053842;28;19929;-77
2022/03/15 06:54:51;;;;;;;;;;;7.20;99.90;;;;;;5052934;28;19925;-77
2022/03/15 06:57:19;;;;;;;;;;;7.20;99.90;;;;;;5053149;28;20396;-77
2022/03/15 06:59:46;;;;;;;;;;;7.30;99.90;;;;;;5052826;28;19929;-77
2022/03/15 07:02:13;;;;;;;;;;;7.30;99.90;;;;;;5052728;28;19925;-77
2022/03/15 07:04:40;;;;;;;;;;;7.30;99.90;;;;;;5053050;28;19924;-77
2022/03/15 07:07:07;;;;;;;;;;;7.40;99.90;;;;;;5053021;28;20285;-77
2022/03/15 07:09:34;;;;;;;;;;;7.40;99.90;;;;;;5058369;28;19944;-75
2022/03/15 07:12:01;;;;;;;;;;;7.40;99.90;;;;;;5058529;28;19931;-77
2022/03/15 07:14:29;;;;;;;;;;;7.50;99.90;;;;;;5065313;28;20455;-77
2022/03/15 07:16:56;;;;;;;;;;;7.50;99.90;;;;;;5072892;28;19924;-76
2022/03/15 07:19:23;;;;;;;;;;;7.60;99.90;;;;;;5072284;28;19924;-77
2022/03/15 07:21:50;;;;;;;;;;;7.60;99.90;;;;;;5072747;28;19924;-77
2022/03/15 07:24:17;;;;;;;;;;;7.60;99.90;;;;;;5073035;28;20299;-76
2022/03/15 07:26:44;;;;;;;;;;;7.60;99.90;;;;;;5072962;28;19931;-76
2022/03/15 07:29:11;;;;;;;;;;;7.70;99.90;;;;;;5072400;28;19934;-77
2022/03/15 07:31:39;;;;;;;;;;;7.70;99.90;;;;;;5072295;28;19925;-77
2022/03/15 07:34:06;;;;;;;;;;;7.70;99.90;;;;;;5063287;28;19924;-76
2022/03/15 07:36:35;;;;;;;;;;;7.80;99.90;;;;;;5058703;28;19925;-77
2022/03/15 07:39:03;;;;;;;;;;;7.80;99.90;;;;;;5054321;28;19925;-77
2022/03/15 07:41:32;;;;;;;;;;;7.90;99.90;;;;;;5052352;28;19925;-76
2022/03/15 07:44:00;;;;;;;;;;;8.00;99.90;;;;;;5052472;28;19932;-77
2022/03/15 07:46:27;;;;;;;;;;;8.00;99.90;;;;;;5052412;28;19924;-77
2022/03/15 07:48:55;;;;;;;;;;;8.10;99.90;;;;;;5051796;28;19929;-75
2022/03/15 07:51:22;;;;;;;;;;;8.10;99.90;;;;;;5052368;28;20027;-76
2022/03/15 07:53:49;;;;;;;;;;;8.00;99.90;;;;;;5052126;28;20300;-77
2022/03/15 07:56:17;;;;;;;;;;;8.00;99.90;;;;;;5058172;28;19924;-76
2022/03/15 07:58:43;;;;;;;;;;;7.90;99.90;;;;;;5071568;28;19925;-75
2022/03/15 08:01:10;;;;;;;;;;;7.80;99.90;;;;;;5072279;28;19925;-76
2022/03/15 08:03:37;;;;;;;;;;;7.80;99.90;;;;;;5071406;28;19925;-77
2022/03/15 08:06:06;;;;;;;;;;;7.80;99.90;;;;;;5071975;28;19931;-73
2022/03/15 08:08:36;;;;;;;;;;;7.80;99.90;;;;;;5072039;28;19924;-74
2022/03/15 08:11:06;;;;;;;;;;;7.80;99.90;;;;;;5064884;28;20426;-73
2022/03/15 08:13:34;;;;;;;;;;;7.80;99.90;;;;;;5063886;28;19946;-73
2022/03/15 08:16:02;;;;;;;;;;;7.80;99.90;;;;;;5072165;28;19963;-73
2022/03/15 08:18:29;;;;;;;;;;;7.70;99.90;;;;;;5071994;28;20560;-73
2022/03/15 08:20:58;;;;;;;;;;;7.70;99.90;;;;;;5071512;28;19929;-74
2022/03/15 08:23:26;;;;;;;;;;;7.60;99.90;;;;;;5072089;28;19924;-73
2022/03/15 08:25:55;;;;;;;;;;;7.60;99.90;;;;;;5071985;28;19978;-73
2022/03/15 08:28:24;;;;;;;;;;;7.60;99.90;;;;;;5072019;28;19968;-73
2022/03/15 08:30:51;;;;;;;;;;;7.60;99.90;;;;;;5071729;28;20389;-73
2022/03/15 08:33:18;;;;;;;;;;;7.60;99.90;;;;;;5072222;28;20360;-73
2022/03/15 08:35:45;;;;;;;;;;;7.60;99.90;;;;;;5072510;28;20019;-73
2022/03/15 08:38:12;;;;;;;;;;;7.60;99.90;;;;;;5072014;28;19928;-73
2022/03/15 08:40:40;;;;;;;;;;;7.70;99.90;;;;;;5070874;28;19925;-74
2022/03/15 08:43:07;;;;;;;;;;;7.70;99.90;;;;;;5071076;28;19925;-74
2022/03/15 08:45:34;;;;;;;;;;;7.70;99.90;;;;;;5071419;28;19924;-72
2022/03/15 08:48:03;;;;;;;;;;;7.70;99.90;;;;;;5061995;28;20372;-77
2022/03/15 08:50:29;;;;;;;;;;;7.80;99.90;;;;;;5056597;28;19925;-77
2022/03/15 08:52:57;;;;;;;;;;;7.80;99.90;;;;;;5051377;28;19936;-77
2022/03/15 08:55:24;;;;;;;;;;;7.80;99.90;;;;;;5051145;28;19924;-76
2022/03/15 08:57:52;;;;;;;;;;;7.80;99.90;;;;;;5051206;28;19971;-76
2022/03/15 09:00:19;;;;;;;;;;;7.80;99.90;;;;;;5050776;28;19924;-76
2022/03/15 09:02:46;;;;;;;;;;;7.80;99.90;;;;;;5051075;28;19928;-78
2022/03/15 09:05:14;;;;;;;;;;;7.80;99.90;;;;;;5051517;28;19959;-78
2022/03/15 09:07:41;;;;;;;;;;;7.80;99.90;;;;;;5051470;28;19960;-77
2022/03/15 09:10:08;;;;;;;;;;;7.90;99.90;;;;;;5050565;28;19925;-77
2022/03/15 09:12:35;;;;;;;;;;;7.90;99.90;;;;;;5051324;28;19932;-76
2022/03/15 09:15:03;;;;;;;;;;;7.90;99.90;;;;;;5047381;28;19935;-76
2022/03/15 09:17:30;;;;;;;;;;;7.90;99.90;;;;;;5057002;28;19924;-77
2022/03/15 09:19:57;;;;;;;;;;;7.90;99.90;;;;;;5054059;28;20384;-76
2022/03/15 09:22:24;;;;;;;;;;;7.90;99.90;;;;;;5057682;28;19924;-77
2022/03/15 09:24:51;;;;;;;;;;;7.90;99.90;;;;;;5071577;28;19925;-78
2022/03/15 09:27:18;;;;;;;;;;;7.90;99.90;;;;;;5053074;28;20392;-76
2022/03/15 09:29:44;;;;;;;;;;;7.90;99.90;;;;;;5069503;28;19928;-77
2022/03/15 09:32:13;;;;;;;;;;;7.90;99.90;;;;;;5068157;28;19925;-77
2022/03/15 09:34:40;;;;;;;;;;;7.90;99.90;;;;;;5053962;28;20471;-77
2022/03/15 09:37:07;;;;;;;;;;;7.90;99.90;;;;;;5056434;28;19932;-78
2022/03/15 09:39:34;;;;;;;;;;;8.00;99.90;;;;;;5049693;28;19925;-77
2022/03/15 09:42:08;;;;;;;;;;;8.10;99.90;;;;;;5049880;28;19929;-77
2022/03/15 09:44:36;;;;;;;;;;;8.10;99.90;;;;;;5049995;28;19924;-78
2022/03/15 09:47:05;;;;;;;;;;;8.20;99.90;;;;;;5046445;28;19928;-78
2022/03/15 09:49:34;;;;;;;;;;;8.20;99.90;;;;;;5057286;28;19993;-77
2022/03/15 09:52:04;;;;;;;;;;;8.20;99.90;;;;;;5057930;28;19925;-78
2022/03/15 09:54:31;;;;;;;;;;;8.30;99.90;;;;;;5056654;28;20407;-78
2022/03/15 09:56:58;;;;;;;;;;;8.30;99.90;;;;;;5050074;28;20019;-78
2022/03/15 09:59:26;;;;;;;;;;;8.20;99.90;;;;;;5049309;28;19929;-76
2022/03/15 10:04:23;;;;;;;;;;;8.20;99.90;;;;;;5010164;28;20012;-77
2022/03/15 10:06:52;;;;;;;;;;;8.20;99.90;;;;;;5030902;28;19968;-76
2022/03/15 10:09:19;;;;;;;;;;;8.30;99.90;;;;;;5012364;28;20092;-77
2022/03/15 10:11:46;;;;;;;;;;;8.20;99.90;;;;;;5013222;28;20404;-76
2022/03/15 10:14:12;;;;;;;;;;;8.10;99.90;;;;;;5031193;28;19952;-76
2022/03/15 10:16:40;;;;;;;;;;;8.10;99.90;;;;;;5032925;28;19932;-76
2022/03/15 10:19:08;;;;;;;;;;;8.10;99.90;;;;;;5031838;28;19952;-75
2022/03/15 10:21:40;;;;;;;;;;;8.10;99.90;;;;;;5032874;28;20303;-75
2022/03/15 10:24:08;;;;;;;;;;;8.00;99.90;;;;;;5032543;28;19932;-75
2022/03/15 10:26:37;;;;;;;;;;;8.10;99.90;;;;;;5035855;28;19955;-75
2022/03/15 10:29:04;;;;;;;;;;;8.10;99.90;;;;;;5035924;28;19983;-75
2022/03/15 10:31:31;;;;;;;;;;;8.00;99.90;;;;;;5030252;28;19926;-75
2022/03/15 10:34:01;;;;;;;;;;;7.90;99.90;;;;;;5036405;28;19925;-77
2022/03/15 10:36:37;;;;;;;;;;;7.90;99.90;;;;;;5037595;28;19986;-76
2022/03/15 10:39:04;;;;;;;;;;;7.90;99.90;;;;;;5037377;28;19925;-76
2022/03/15 10:41:42;;;;;;;;;;;7.80;99.90;;;;;;5037348;28;20338;-76
2022/03/15 10:44:15;;;;;;;;;;;7.90;99.90;;;;;;5037724;28;19932;-76
2022/03/15 10:46:41;;;;;;;;;;;7.90;99.90;;;;;;5037886;28;20310;-76
2022/03/15 10:49:08;;;;;;;;;;;8.00;99.90;;;;;;5037142;28;19937;-76
2022/03/15 10:51:37;;;;;;;;;;;8.00;99.90;;;;;;5037526;28;19933;-76
2022/03/15 10:54:06;;;;;;;;;;;8.20;99.90;;;;;;5037672;28;19975;-77
2022/03/15 10:56:34;;;;;;;;;;;8.20;99.90;;;;;;5037651;28;19978;-76
2022/03/15 10:59:01;;;;;;;;;;;8.40;99.90;;;;;;5036636;28;20024;-76
2022/03/15 11:01:29;;;;;;;;;;;8.50;99.90;;;;;;5037070;28;19951;-77
2022/03/15 11:03:57;;;;;;;;;;;8.60;99.90;;;;;;5037185;28;19978;-77
2022/03/15 11:06:31;;;;;;;;;;;8.70;99.90;;;;;;5037128;28;20400;-77
2022/03/15 11:08:58;;;;;;;;;;;8.70;99.90;;;;;;5036912;28;19972;-77
2022/03/15 11:11:27;;;;;;;;;;;8.80;99.90;;;;;;5036628;28;20352;-77
2022/03/15 11:14:00;;;;;;;;;;;8.90;99.90;;;;;;5070198;28;19975;-74
2022/03/15 11:16:30;;;;;;;;;;;8.80;99.90;;;;;;5070006;28;19925;-75
2022/03/15 11:18:57;;;;;;;;;;;8.70;99.90;;;;;;5069434;28;19925;-76
2022/03/15 11:21:25;;;;;;;;;;;8.80;99.90;;;;;;5036157;28;19925;-78
2022/03/15 11:23:54;;;;;;;;;;;8.80;99.90;;;;;;5036403;28;19925;-78
2022/03/15 11:26:22;;;;;;;;;;;8.70;99.90;;;;;;5042095;28;19925;-78
2022/03/15 11:28:49;;;;;;;;;;;8.70;99.90;;;;;;5035159;28;20339;-76
2022/03/15 11:31:18;;;;;;;;;;;8.80;99.90;;;;;;5036124;28;19933;-77
2022/03/15 11:33:47;;;;;;;;;;;8.80;99.90;;;;;;5036361;28;19964;-78
2022/03/15 11:36:14;;;;;;;;;;;8.90;99.90;;;;;;5035585;28;19925;-78
2022/03/15 11:38:42;;;;;;;;;;;8.90;99.90;;;;;;5035194;28;20395;-76
2022/03/15 11:41:10;;;;;;;;;;;8.90;99.90;;;;;;5035805;28;19925;-77
2022/03/15 11:43:40;;;;;;;;;;;8.90;99.90;;;;;;5035819;28;19925;-78
2022/03/15 11:46:11;;;;;;;;;;;9.00;99.90;;;;;;5036636;28;20385;-77
2022/03/15 11:48:45;;;;;;;;;;;9.00;99.90;;;;;;5036522;28;19929;-77
2022/03/15 11:51:18;;;;;;;;;;;9.10;99.90;;;;;;5036157;28;20460;-77
2022/03/15 11:53:48;;;;;;;;;;;9.10;99.90;;;;;;5036499;28;19924;-77
2022/03/15 11:56:19;;;;;;;;;;;9.20;99.90;;;;;;5036426;28;19929;-78
2022/03/15 11:58:52;;;;;;;;;;;9.20;99.90;;;;;;5036541;28;19925;-77
2022/03/15 12:01:19;;;;;;;;;;;9.30;99.90;;;;;;5036075;28;19935;-78
2022/03/15 12:03:48;;;;;;;;;;;9.30;99.90;;;;;;5035259;28;20407;-77
2022/03/15 12:06:19;;;;;;;;;;;9.30;99.90;;;;;;5036369;28;19929;-77
2022/03/15 12:08:52;;;;;;;;;;;9.20;99.90;;;;;;5035251;28;20036;-77
2022/03/15 12:11:26;;;;;;;;;;;9.30;99.90;;;;;;5035400;28;19978;-77
2022/03/15 12:13:54;;;;;;;;;;;9.40;99.90;;;;;;5068172;28;19925;-77
2022/03/15 12:16:25;;;;;;;;;;;9.30;99.90;;;;;;5052153;28;19925;-77
2022/03/15 12:19:02;;;;;;;;;;;9.30;99.90;;;;;;5027833;28;19925;-77
2022/03/15 12:21:33;;;;;;;;;;;9.30;99.90;;;;;;5035369;28;19951;-78
2022/03/15 12:24:00;;;;;;;;;;;9.20;99.90;;;;;;5034723;28;19925;-77
2022/03/15 12:26:28;;;;;;;;;;;9.20;99.90;;;;;;5035720;28;19925;-77
2022/03/15 12:28:56;;;;;;;;;;;9.30;99.90;;;;;;5035618;28;19925;-78
2022/03/15 12:31:32;;;;;;;;;;;9.40;99.90;;;;;;5035931;28;19956;-78
2022/03/15 12:34:05;;;;;;;;;;;9.40;99.90;;;;;;5036065;28;19924;-77
2022/03/15 12:36:39;;;;;;;;;;;9.40;99.90;;;;;;5036361;28;19924;-77
2022/03/15 12:39:13;;;;;;;;;;;9.50;99.90;;;;;;5035079;28;19925;-78
2022/03/15 12:41:40;;;;;;;;;;;9.60;99.90;;;;;;5035587;28;19928;-76
2022/03/15 12:44:08;;;;;;;;;;;9.60;99.90;;;;;;5034216;28;20400;-74
2022/03/15 12:46:35;;;;;;;;;;;9.60;99.90;;;;;;5033292;28;19925;-75
2022/03/15 12:49:07;;;;;;;;;;;9.70;99.90;;;;;;5032665;28;19929;-75
2022/03/15 12:51:38;;;;;;;;;;;9.70;99.90;;;;;;5033849;28;19929;-75
2022/03/15 12:54:06;;;;;;;;;;;9.80;99.90;;;;;;5033558;28;19970;-75
2022/03/15 12:56:32;;;;;;;;;;;9.90;99.90;;;;;;5033585;28;19959;-75
2022/03/15 12:58:59;;;;;;;;;;;10.00;99.90;;;;;;5032961;28;19948;-75
2022/03/15 13:01:27;;;;;;;;;;;10.10;99.90;;;;;;5034010;28;20406;-75
2022/03/15 13:03:54;;;;;;;;;;;10.00;99.90;;;;;;5034080;28;19925;-75
2022/03/15 13:06:22;;;;;;;;;;;10.00;99.90;;;;;;5034281;28;19925;-75
2022/03/15 13:08:55;;;;;;;;;;;10.10;99.90;;;;;;5033623;28;19933;-75
2022/03/15 13:11:21;;;;;;;;;;;10.20;99.90;;;;;;5033723;28;19924;-75
2022/03/15 13:13:48;;;;;;;;;;;10.30;99.90;;;;;;5066910;28;19925;-75
2022/03/15 13:16:15;;;;;;;;;;;10.30;99.90;;;;;;5067066;28;19924;-75
2022/03/15 13:18:42;;;;;;;;;;;10.20;99.90;;;;;;5033574;28;19929;-75
2022/03/15 13:21:10;;;;;;;;;;;10.30;99.90;;;;;;5066806;28;19928;-75
2022/03/15 13:23:41;;;;;;;;;;;10.50;99.90;;;;;;5066808;28;20012;-75
2022/03/15 13:26:11;;;;;;;;;;;10.70;99.90;;;;;;5066792;28;19989;-75
2022/03/15 13:28:41;;;;;;;;;;;10.80;99.90;;;;;;5065965;28;21339;-75
2022/03/15 13:31:09;;;;;;;;;;;11.00;99.90;;;;;;5066589;28;20027;-75
2022/03/15 13:33:38;;;;;;;;;;;11.50;99.90;;;;;;5066483;28;19928;-75
2022/03/15 13:36:07;;;;;;;;;;;11.80;99.90;;;;;;5066374;28;19931;-75
2022/03/15 13:38:34;;;;;;;;;;;12.00;99.90;;;;;;5067117;28;19931;-75
2022/03/15 13:41:03;;;;;;;;;;;12.20;99.90;;;;;;5068860;28;19931;-80
2022/03/15 13:43:32;;;;;;;;;;;12.60;99.90;;;;;;5036499;28;19924;-80
2022/03/15 13:45:59;;;;;;;;;;;12.90;99.90;;;;;;5058537;28;19978;-78
2022/03/15 13:48:27;;;;;;;;;;;13.60;99.90;;;;;;5034267;28;19924;-79
2022/03/15 13:50:58;;;;;;;;;;;14.10;99.90;;;;;;5036811;28;19929;-80
2022/03/15 13:53:26;;;;;;;;;;;15.00;99.90;;;;;;5032882;28;19925;-81
2022/03/15 13:55:53;;;;;;;;;;;15.60;99.90;;;;;;5032063;28;19925;-82
2022/03/15 13:58:28;;;;;;;;;;;16.10;99.90;;;;;;5035938;28;19953;-81
2022/03/15 14:01:03;;;;;;;;;;;15.50;99.90;;;;;;5037089;28;19925;-81
2022/03/15 14:03:32;;;;;;;;;;;14.40;99.90;;;;;;5037995;28;19925;-82
2022/03/15 14:06:00;;;;;;;;;;;13.60;99.90;;;;;;5038396;28;19975;-81
2022/03/15 14:08:27;;;;;;;;;;;13.30;99.90;;;;;;5037860;28;20514;-80
2022/03/15 14:10:54;;;;;;;;;;;12.90;99.90;;;;;;5036763;28;19979;-81
2022/03/15 14:13:30;;;;;;;;;;;;;;;;;;5035223;28;20016;-81
2022/03/15 14:16:08;;;;;;;;;;;12.70;99.90;;;;;;5054673;28;19925;-81
2022/03/15 14:18:36;;;;;;;;;;;12.40;99.90;;;;;;5037296;28;19925;-81
2022/03/15 14:21:05;;;;;;;;;;;12.20;99.90;;;;;;5036865;28;19925;-81
2022/03/15 14:23:32;;;;;;;;;;;12.10;99.90;;;;;;5037058;28;19924;-81
2022/03/15 14:26:00;;;;;;;;;;;12.20;99.90;;;;;;5051527;28;19960;-81
2022/03/15 14:28:28;;;;;;;;;;;12.40;99.90;;;;;;5036656;28;19956;-80
2022/03/15 14:31:01;;;;;;;;;;;12.30;99.90;;;;;;5041296;28;19964;-79
2022/03/15 14:33:29;;;;;;;;;;;12.40;99.90;;;;;;5035263;28;19978;-78
2022/03/15 14:35:59;;;;;;;;;;;12.20;99.90;;;;;;5035064;28;19925;-79